sensor_id;sensor_type;location;lat;lon;timestamp;pressure;altitude;pressure_sealevel;temperature;humidity
15489;BME280;7846;48.830;9.116;2023-06-04T00:01:55;97839.31;;;18.33;56.49
15489;BME280;7846;48.830;9.116;2023-06-04T00:04:25;97844.00;;;18.38;56.65
15489;BME280;7846;48.830;9.116;2023-06-04T00:06:52;97842.38;;;18.04;57.00
15489;BME280;7846;48.830;9.116;2023-06-04T00:09:17;97843.81;;;18.06;56.95
15489;BME280;7846;48.830;9.116;2023-06-04T00:11:44;97845.66;;;18.19;56.85
15489;BME280;7846;48.830;9.116;2023-06-04T00:14:11;97841.78;;;18.15;56.79
15489;BME280;7846;48.830;9.116;2023-06-04T00:16:37;97848.13;;;18.07;57.05
15489;BME280;7846;48.830;9.116;2023-06-04T00:19:06;97838.69;;;18.11;56.95
15489;BME280;7846;48.830;9.116;2023-06-04T00:21:31;97847.28;;;18.00;57.35
15489;BME280;7846;48.830;9.116;2023-06-04T00:24:00;97838.88;;;17.97;58.04
15489;BME280;7846;48.830;9.116;2023-06-04T00:26:28;97842.34;;;17.90;58.00
15489;BME280;7846;48.830;9.116;2023-06-04T00:28:55;97837.38;;;17.67;58.87
15489;BME280;7846;48.830;9.116;2023-06-04T00:31:20;97843.13;;;17.71;58.49
15489;BME280;7846;48.830;9.116;2023-06-04T00:33:47;97842.91;;;17.66;58.72
15489;BME280;7846;48.830;9.116;2023-06-04T00:36:13;97832.88;;;17.61;58.38
15489;BME280;7846;48.830;9.116;2023-06-04T00:38:38;97841.91;;;17.67;58.26
15489;BME280;7846;48.830;9.116;2023-06-04T00:41:05;97846.81;;;17.70;58.46
15489;BME280;7846;48.830;9.116;2023-06-04T00:43:30;97848.59;;;17.50;58.93
15489;BME280;7846;48.830;9.116;2023-06-04T00:45:57;97843.47;;;17.41;59.11
15489;BME280;7846;48.830;9.116;2023-06-04T00:48:23;97851.66;;;17.40;59.38
15489;BME280;7846;48.830;9.116;2023-06-04T00:50:50;97852.19;;;17.22;59.69
15489;BME280;7846;48.830;9.116;2023-06-04T00:53:16;97852.00;;;17.24;59.37
15489;BME280;7846;48.830;9.116;2023-06-04T00:55:41;97861.59;;;17.18;59.61
15489;BME280;7846;48.830;9.116;2023-06-04T00:58:08;97860.78;;;17.24;59.30
15489;BME280;7846;48.830;9.116;2023-06-04T01:00:35;97860.75;;;17.11;60.20
15489;BME280;7846;48.830;9.116;2023-06-04T01:03:04;97859.25;;;17.02;60.82
15489;BME280;7846;48.830;9.116;2023-06-04T01:05:49;97862.22;;;17.20;60.51
15489;BME280;7846;48.830;9.116;2023-06-04T01:08:17;97870.38;;;17.12;60.81
15489;BME280;7846;48.830;9.116;2023-06-04T01:10:53;97865.91;;;17.19;61.23
15489;BME280;7846;48.830;9.116;2023-06-04T01:13:18;97868.09;;;17.02;61.30
15489;BME280;7846;48.830;9.116;2023-06-04T01:15:46;97871.59;;;17.16;60.84
15489;BME280;7846;48.830;9.116;2023-06-04T01:18:28;97863.66;;;17.23;60.50
15489;BME280;7846;48.830;9.116;2023-06-04T01:20:59;97866.72;;;17.20;60.91
15489;BME280;7846;48.830;9.116;2023-06-04T01:26:10;97869.69;;;16.97;61.17
15489;BME280;7846;48.830;9.116;2023-06-04T01:28:37;97866.81;;;16.98;60.91
15489;BME280;7846;48.830;9.116;2023-06-04T01:31:04;97874.56;;;16.93;61.12
15489;BME280;7846;48.830;9.116;2023-06-04T01:33:33;97867.31;;;16.74;61.59
15489;BME280;7846;48.830;9.116;2023-06-04T01:35:59;97864.47;;;16.82;60.99
15489;BME280;7846;48.830;9.116;2023-06-04T01:38:27;97866.94;;;16.83;60.68
15489;BME280;7846;48.830;9.116;2023-06-04T01:40:54;97862.84;;;16.81;60.71
15489;BME280;7846;48.830;9.116;2023-06-04T01:43:22;97851.66;;;16.64;61.68
15489;BME280;7846;48.830;9.116;2023-06-04T01:45:48;97855.00;;;16.73;60.51
15489;BME280;7846;48.830;9.116;2023-06-04T01:48:13;97854.00;;;16.74;61.34
15489;BME280;7846;48.830;9.116;2023-06-04T01:50:39;97857.03;;;16.70;61.31
15489;BME280;7846;48.830;9.116;2023-06-04T01:53:04;97858.81;;;16.63;61.41
15489;BME280;7846;48.830;9.116;2023-06-04T01:55:30;97853.13;;;16.38;62.48
15489;BME280;7846;48.830;9.116;2023-06-04T01:58:00;97861.63;;;16.27;63.27
15489;BME280;7846;48.830;9.116;2023-06-04T02:00:25;97862.75;;;16.39;62.52
15489;BME280;7846;48.830;9.116;2023-06-04T02:02:51;97862.13;;;16.37;62.00
15489;BME280;7846;48.830;9.116;2023-06-04T02:05:17;97857.25;;;16.41;62.05
15489;BME280;7846;48.830;9.116;2023-06-04T02:07:43;97861.06;;;16.32;63.02
15489;BME280;7846;48.830;9.116;2023-06-04T02:10:17;97860.09;;;16.39;62.38
15489;BME280;7846;48.830;9.116;2023-06-04T02:12:54;97861.31;;;16.37;62.32
15489;BME280;7846;48.830;9.116;2023-06-04T02:15:20;97869.06;;;16.10;62.77
15489;BME280;7846;48.830;9.116;2023-06-04T02:17:48;97864.78;;;16.16;62.51
15489;BME280;7846;48.830;9.116;2023-06-04T02:20:16;97867.47;;;16.16;63.07
15489;BME280;7846;48.830;9.116;2023-06-04T02:22:42;97869.94;;;15.96;63.12
15489;BME280;7846;48.830;9.116;2023-06-04T02:25:08;97871.13;;;15.93;63.53
15489;BME280;7846;48.830;9.116;2023-06-04T02:27:37;97863.63;;;15.97;62.89
15489;BME280;7846;48.830;9.116;2023-06-04T02:30:03;97867.16;;;16.04;63.02
15489;BME280;7846;48.830;9.116;2023-06-04T02:32:29;97869.44;;;15.86;63.54
15489;BME280;7846;48.830;9.116;2023-06-04T02:34:55;97867.91;;;15.98;63.11
15489;BME280;7846;48.830;9.116;2023-06-04T02:37:22;97875.53;;;15.80;63.58
15489;BME280;7846;48.830;9.116;2023-06-04T02:39:48;97876.94;;;15.46;64.51
15489;BME280;7846;48.830;9.116;2023-06-04T02:42:15;97870.59;;;15.77;63.92
15489;BME280;7846;48.830;9.116;2023-06-04T02:44:40;97877.59;;;15.48;64.56
15489;BME280;7846;48.830;9.116;2023-06-04T02:47:06;97879.31;;;15.56;64.76
15489;BME280;7846;48.830;9.116;2023-06-04T02:49:31;97873.84;;;15.79;63.30
15489;BME280;7846;48.830;9.116;2023-06-04T02:51:57;97878.22;;;15.86;63.33
15489;BME280;7846;48.830;9.116;2023-06-04T02:54:22;97878.72;;;15.75;63.68
15489;BME280;7846;48.830;9.116;2023-06-04T02:56:48;97870.91;;;15.88;63.37
15489;BME280;7846;48.830;9.116;2023-06-04T02:59:16;97871.66;;;16.04;63.00
15489;BME280;7846;48.830;9.116;2023-06-04T03:01:43;97876.34;;;15.80;63.95
15489;BME280;7846;48.830;9.116;2023-06-04T03:04:09;97876.50;;;15.79;63.39
15489;BME280;7846;48.830;9.116;2023-06-04T03:06:36;97872.03;;;15.79;63.53
15489;BME280;7846;48.830;9.116;2023-06-04T03:09:04;97877.72;;;15.76;63.45
15489;BME280;7846;48.830;9.116;2023-06-04T03:11:30;97877.66;;;15.69;63.64
15489;BME280;7846;48.830;9.116;2023-06-04T03:13:56;97886.00;;;15.52;63.93
15489;BME280;7846;48.830;9.116;2023-06-04T03:16:22;97884.03;;;15.60;64.25
15489;BME280;7846;48.830;9.116;2023-06-04T03:18:53;97890.19;;;15.46;64.10
15489;BME280;7846;48.830;9.116;2023-06-04T03:21:19;97894.66;;;15.24;64.74
15489;BME280;7846;48.830;9.116;2023-06-04T03:23:44;97887.75;;;15.44;64.01
15489;BME280;7846;48.830;9.116;2023-06-04T03:26:10;97892.28;;;15.14;64.74
15489;BME280;7846;48.830;9.116;2023-06-04T03:28:38;97891.00;;;15.25;64.15
15489;BME280;7846;48.830;9.116;2023-06-04T03:31:08;97898.84;;;15.18;64.64
15489;BME280;7846;48.830;9.116;2023-06-04T03:33:36;97897.22;;;15.17;64.50
15489;BME280;7846;48.830;9.116;2023-06-04T03:36:02;97893.09;;;15.30;64.25
15489;BME280;7846;48.830;9.116;2023-06-04T03:38:29;97899.19;;;15.45;64.17
15489;BME280;7846;48.830;9.116;2023-06-04T03:40:55;97907.00;;;15.32;64.05
15489;BME280;7846;48.830;9.116;2023-06-04T03:43:29;97900.09;;;15.37;64.16
15489;BME280;7846;48.830;9.116;2023-06-04T03:45:54;97901.22;;;15.43;63.84
15489;BME280;7846;48.830;9.116;2023-06-04T03:48:21;97898.69;;;15.56;63.27
15489;BME280;7846;48.830;9.116;2023-06-04T03:50:46;97900.09;;;15.37;63.42
15489;BME280;7846;48.830;9.116;2023-06-04T03:53:12;97902.13;;;15.50;63.45
15489;BME280;7846;48.830;9.116;2023-06-04T03:55:40;97900.22;;;15.80;63.06
15489;BME280;7846;48.830;9.116;2023-06-04T03:58:10;97896.84;;;15.35;63.69
15489;BME280;7846;48.830;9.116;2023-06-04T04:00:36;97905.56;;;15.65;62.68
15489;BME280;7846;48.830;9.116;2023-06-04T04:03:02;97904.56;;;15.66;62.91
15489;BME280;7846;48.830;9.116;2023-06-04T04:05:28;97904.09;;;15.63;62.86
15489;BME280;7846;48.830;9.116;2023-06-04T04:07:53;97911.72;;;15.66;62.87
15489;BME280;7846;48.830;9.116;2023-06-04T04:10:19;97910.31;;;15.70;62.76
15489;BME280;7846;48.830;9.116;2023-06-04T04:12:45;97915.13;;;15.81;62.38
15489;BME280;7846;48.830;9.116;2023-06-04T04:15:18;97911.41;;;15.97;62.15
15489;BME280;7846;48.830;9.116;2023-06-04T04:17:45;97915.03;;;16.11;61.77
15489;BME280;7846;48.830;9.116;2023-06-04T04:20:11;97913.63;;;15.93;61.68
15489;BME280;7846;48.830;9.116;2023-06-04T04:22:40;97915.75;;;16.26;61.29
15489;BME280;7846;48.830;9.116;2023-06-04T04:25:06;97915.91;;;16.18;61.51
15489;BME280;7846;48.830;9.116;2023-06-04T04:27:32;97925.50;;;15.97;61.73
15489;BME280;7846;48.830;9.116;2023-06-04T04:29:59;97929.06;;;16.26;60.45
15489;BME280;7846;48.830;9.116;2023-06-04T04:32:25;97933.84;;;16.37;60.03
15489;BME280;7846;48.830;9.116;2023-06-04T04:34:53;97927.50;;;16.38;59.87
15489;BME280;7846;48.830;9.116;2023-06-04T04:37:24;97933.91;;;16.01;60.65
15489;BME280;7846;48.830;9.116;2023-06-04T04:39:51;97930.28;;;16.02;59.74
15489;BME280;7846;48.830;9.116;2023-06-04T04:42:19;97926.78;;;16.23;60.14
15489;BME280;7846;48.830;9.116;2023-06-04T04:44:44;97940.47;;;16.48;59.29
15489;BME280;7846;48.830;9.116;2023-06-04T04:47:24;97938.34;;;16.37;59.26
15489;BME280;7846;48.830;9.116;2023-06-04T04:49:50;97935.66;;;16.58;58.52
15489;BME280;7846;48.830;9.116;2023-06-04T04:52:15;97940.59;;;16.61;58.39
15489;BME280;7846;48.830;9.116;2023-06-04T04:54:40;97944.00;;;16.77;57.89
15489;BME280;7846;48.830;9.116;2023-06-04T04:57:06;97943.63;;;16.80;57.52
15489;BME280;7846;48.830;9.116;2023-06-04T04:59:34;97940.38;;;16.84;57.01
15489;BME280;7846;48.830;9.116;2023-06-04T05:02:02;97940.88;;;16.73;57.47
15489;BME280;7846;48.830;9.116;2023-06-04T05:04:30;97933.09;;;16.72;57.61
15489;BME280;7846;48.830;9.116;2023-06-04T05:07:03;97941.59;;;16.60;57.88
15489;BME280;7846;48.830;9.116;2023-06-04T05:09:28;97946.47;;;16.78;57.26
15489;BME280;7846;48.830;9.116;2023-06-04T05:12:05;97944.66;;;17.13;56.95
15489;BME280;7846;48.830;9.116;2023-06-04T05:14:39;97946.59;;;16.98;57.17
15489;BME280;7846;48.830;9.116;2023-06-04T05:17:05;97955.91;;;16.81;57.07
15489;BME280;7846;48.830;9.116;2023-06-04T05:19:31;97949.25;;;16.98;57.30
15489;BME280;7846;48.830;9.116;2023-06-04T05:22:00;97953.47;;;16.86;57.60
15489;BME280;7846;48.830;9.116;2023-06-04T05:24:30;97964.81;;;16.73;58.18
15489;BME280;7846;48.830;9.116;2023-06-04T05:26:56;97965.16;;;16.42;58.18
15489;BME280;7846;48.830;9.116;2023-06-04T05:29:27;97967.47;;;16.95;56.70
15489;BME280;7846;48.830;9.116;2023-06-04T05:31:56;97974.13;;;16.84;55.96
15489;BME280;7846;48.830;9.116;2023-06-04T05:34:23;97969.75;;;17.04;55.85
15489;BME280;7846;48.830;9.116;2023-06-04T05:36:49;97977.88;;;16.96;55.76
15489;BME280;7846;48.830;9.116;2023-06-04T05:39:15;97974.97;;;17.19;55.75
15489;BME280;7846;48.830;9.116;2023-06-04T05:41:42;97981.97;;;17.68;54.61
15489;BME280;7846;48.830;9.116;2023-06-04T05:44:07;97980.03;;;17.49;55.32
15489;BME280;7846;48.830;9.116;2023-06-04T05:46:32;97972.34;;;17.67;54.08
15489;BME280;7846;48.830;9.116;2023-06-04T05:48:59;97978.03;;;18.05;53.16
15489;BME280;7846;48.830;9.116;2023-06-04T05:51:24;97975.00;;;18.15;52.75
15489;BME280;7846;48.830;9.116;2023-06-04T05:53:52;97976.06;;;18.41;51.95
15489;BME280;7846;48.830;9.116;2023-06-04T05:56:17;97981.81;;;18.44;51.99
15489;BME280;7846;48.830;9.116;2023-06-04T05:58:42;97980.34;;;18.35;52.28
15489;BME280;7846;48.830;9.116;2023-06-04T06:01:10;97984.44;;;18.31;52.43
15489;BME280;7846;48.830;9.116;2023-06-04T06:03:36;97986.34;;;18.50;51.72
15489;BME280;7846;48.830;9.116;2023-06-04T06:06:04;97981.59;;;19.05;51.12
15489;BME280;7846;48.830;9.116;2023-06-04T06:08:33;97980.72;;;19.31;50.55
15489;BME280;7846;48.830;9.116;2023-06-04T06:11:00;97985.41;;;19.49;49.85
15489;BME280;7846;48.830;9.116;2023-06-04T06:13:25;97980.56;;;19.26;49.67
15489;BME280;7846;48.830;9.116;2023-06-04T06:15:51;97978.81;;;19.65;49.26
15489;BME280;7846;48.830;9.116;2023-06-04T06:18:17;97984.50;;;20.20;48.39
15489;BME280;7846;48.830;9.116;2023-06-04T06:20:43;97981.72;;;20.72;46.83
15489;BME280;7846;48.830;9.116;2023-06-04T06:23:08;97986.03;;;20.98;44.71
15489;BME280;7846;48.830;9.116;2023-06-04T06:25:35;97991.09;;;21.06;44.33
15489;BME280;7846;48.830;9.116;2023-06-04T06:28:01;97987.91;;;21.41;44.07
15489;BME280;7846;48.830;9.116;2023-06-04T06:30:26;97998.72;;;21.27;44.18
15489;BME280;7846;48.830;9.116;2023-06-04T06:32:52;97990.22;;;21.56;42.88
15489;BME280;7846;48.830;9.116;2023-06-04T06:35:51;97991.41;;;22.08;42.50
15489;BME280;7846;48.830;9.116;2023-06-04T06:38:21;98004.13;;;22.31;43.05
15489;BME280;7846;48.830;9.116;2023-06-04T06:40:51;98000.50;;;22.26;41.40
15489;BME280;7846;48.830;9.116;2023-06-04T06:43:18;98008.78;;;22.06;40.22
15489;BME280;7846;48.830;9.116;2023-06-04T06:45:43;98004.13;;;21.83;40.16
15489;BME280;7846;48.830;9.116;2023-06-04T06:48:17;98006.88;;;21.58;41.30
15489;BME280;7846;48.830;9.116;2023-06-04T06:50:42;98009.16;;;21.91;41.38
15489;BME280;7846;48.830;9.116;2023-06-04T06:53:12;98009.41;;;21.71;40.61
15489;BME280;7846;48.830;9.116;2023-06-04T06:55:42;98005.16;;;21.82;41.19
15489;BME280;7846;48.830;9.116;2023-06-04T06:58:07;98000.50;;;21.59;42.34
15489;BME280;7846;48.830;9.116;2023-06-04T07:00:37;97994.97;;;21.72;42.09
15489;BME280;7846;48.830;9.116;2023-06-04T07:03:07;97995.59;;;22.04;41.39
15489;BME280;7846;48.830;9.116;2023-06-04T07:05:36;97997.53;;;22.15;41.37
15489;BME280;7846;48.830;9.116;2023-06-04T07:08:02;98000.47;;;22.56;39.77
15489;BME280;7846;48.830;9.116;2023-06-04T07:10:29;98008.56;;;22.07;40.54
15489;BME280;7846;48.830;9.116;2023-06-04T07:12:55;98008.81;;;22.89;40.81
15489;BME280;7846;48.830;9.116;2023-06-04T07:15:22;98004.06;;;23.38;39.56
15489;BME280;7846;48.830;9.116;2023-06-04T07:17:49;98006.19;;;23.36;39.15
15489;BME280;7846;48.830;9.116;2023-06-04T07:20:20;98013.41;;;23.01;39.15
15489;BME280;7846;48.830;9.116;2023-06-04T07:22:45;98010.81;;;23.88;38.98
15489;BME280;7846;48.830;9.116;2023-06-04T07:25:10;98016.88;;;23.83;38.47
15489;BME280;7846;48.830;9.116;2023-06-04T07:27:36;98015.28;;;23.71;38.68
15489;BME280;7846;48.830;9.116;2023-06-04T07:30:06;98015.25;;;24.23;37.69
15489;BME280;7846;48.830;9.116;2023-06-04T07:32:34;98006.16;;;24.12;38.28
15489;BME280;7846;48.830;9.116;2023-06-04T07:35:02;98013.94;;;24.25;38.10
15489;BME280;7846;48.830;9.116;2023-06-04T07:37:29;98013.47;;;24.57;38.06
15489;BME280;7846;48.830;9.116;2023-06-04T07:39:58;98019.06;;;24.27;37.36
15489;BME280;7846;48.830;9.116;2023-06-04T07:42:24;98009.66;;;24.86;38.46
15489;BME280;7846;48.830;9.116;2023-06-04T07:44:50;98013.69;;;23.98;37.06
15489;BME280;7846;48.830;9.116;2023-06-04T07:47:15;98012.00;;;22.44;40.40
15489;BME280;7846;48.830;9.116;2023-06-04T07:49:40;98000.19;;;23.58;39.00
15489;BME280;7846;48.830;9.116;2023-06-04T07:52:07;98007.56;;;23.27;40.12
15489;BME280;7846;48.830;9.116;2023-06-04T07:54:33;97999.38;;;24.38;38.11
15489;BME280;7846;48.830;9.116;2023-06-04T07:57:00;97999.81;;;24.18;38.22
15489;BME280;7846;48.830;9.116;2023-06-04T07:59:25;97987.53;;;24.22;38.52
15489;BME280;7846;48.830;9.116;2023-06-04T08:01:51;97999.19;;;24.73;38.71
15489;BME280;7846;48.830;9.116;2023-06-04T08:04:17;97990.31;;;23.87;39.00
15489;BME280;7846;48.830;9.116;2023-06-04T08:06:42;97996.50;;;23.99;39.08
15489;BME280;7846;48.830;9.116;2023-06-04T08:09:09;97991.91;;;24.57;38.16
15489;BME280;7846;48.830;9.116;2023-06-04T08:11:37;97990.63;;;24.31;39.00
15489;BME280;7846;48.830;9.116;2023-06-04T08:14:02;97986.25;;;24.13;39.18
15489;BME280;7846;48.830;9.116;2023-06-04T08:16:31;97988.53;;;23.17;39.50
15489;BME280;7846;48.830;9.116;2023-06-04T08:18:59;97984.13;;;23.11;40.93
15489;BME280;7846;48.830;9.116;2023-06-04T08:21:28;97993.44;;;23.08;40.42
15489;BME280;7846;48.830;9.116;2023-06-04T08:23:54;97983.97;;;23.53;39.51
15489;BME280;7846;48.830;9.116;2023-06-04T08:26:22;97986.81;;;23.86;39.35
15489;BME280;7846;48.830;9.116;2023-06-04T08:28:51;97980.13;;;24.01;39.73
15489;BME280;7846;48.830;9.116;2023-06-04T08:31:16;97982.22;;;24.90;38.10
15489;BME280;7846;48.830;9.116;2023-06-04T08:33:42;97985.91;;;25.56;37.69
15489;BME280;7846;48.830;9.116;2023-06-04T08:36:07;97985.53;;;25.69;37.15
15489;BME280;7846;48.830;9.116;2023-06-04T08:38:34;97985.34;;;25.98;36.47
15489;BME280;7846;48.830;9.116;2023-06-04T08:41:23;97986.78;;;26.05;36.26
15489;BME280;7846;48.830;9.116;2023-06-04T08:43:51;97999.66;;;25.98;36.29
15489;BME280;7846;48.830;9.116;2023-06-04T08:46:21;97991.81;;;26.19;36.35
15489;BME280;7846;48.830;9.116;2023-06-04T08:48:49;97988.84;;;25.76;36.97
15489;BME280;7846;48.830;9.116;2023-06-04T08:51:17;97994.75;;;26.17;37.28
15489;BME280;7846;48.830;9.116;2023-06-04T08:53:43;97992.78;;;26.35;35.89
15489;BME280;7846;48.830;9.116;2023-06-04T08:56:12;97994.09;;;26.32;36.10
15489;BME280;7846;48.830;9.116;2023-06-04T08:58:39;97991.34;;;26.81;35.20
15489;BME280;7846;48.830;9.116;2023-06-04T09:01:06;97995.56;;;26.45;34.67
15489;BME280;7846;48.830;9.116;2023-06-04T09:03:32;97992.19;;;26.05;36.14
15489;BME280;7846;48.830;9.116;2023-06-04T09:05:58;97996.56;;;26.61;35.12
15489;BME280;7846;48.830;9.116;2023-06-04T09:08:24;97991.66;;;26.58;34.62
15489;BME280;7846;48.830;9.116;2023-06-04T09:10:53;97986.91;;;25.72;35.99
15489;BME280;7846;48.830;9.116;2023-06-04T09:13:21;97990.09;;;26.40;35.02
15489;BME280;7846;48.830;9.116;2023-06-04T09:16:01;97993.16;;;27.08;34.91
15489;BME280;7846;48.830;9.116;2023-06-04T09:18:26;97992.69;;;26.02;35.09
15489;BME280;7846;48.830;9.116;2023-06-04T09:21:06;97994.09;;;27.23;34.31
15489;BME280;7846;48.830;9.116;2023-06-04T09:23:48;97994.25;;;27.54;33.99
15489;BME280;7846;48.830;9.116;2023-06-04T09:26:14;97995.78;;;27.35;35.46
15489;BME280;7846;48.830;9.116;2023-06-04T09:28:45;97993.44;;;27.48;33.83
15489;BME280;7846;48.830;9.116;2023-06-04T09:31:15;98000.91;;;27.36;33.25
15489;BME280;7846;48.830;9.116;2023-06-04T09:33:42;98003.03;;;27.29;34.37
15489;BME280;7846;48.830;9.116;2023-06-04T09:36:08;98002.53;;;27.74;34.50
15489;BME280;7846;48.830;9.116;2023-06-04T09:38:35;97998.59;;;28.08;33.66
15489;BME280;7846;48.830;9.116;2023-06-04T09:41:01;98004.38;;;26.89;33.32
15489;BME280;7846;48.830;9.116;2023-06-04T09:43:30;97993.53;;;25.81;34.88
15489;BME280;7846;48.830;9.116;2023-06-04T09:45:55;97989.81;;;27.33;34.05
15489;BME280;7846;48.830;9.116;2023-06-04T09:48:22;97976.41;;;28.11;33.88
15489;BME280;7846;48.830;9.116;2023-06-04T09:50:48;97984.56;;;28.36;32.75
15489;BME280;7846;48.830;9.116;2023-06-04T09:53:19;97986.25;;;28.99;33.01
15489;BME280;7846;48.830;9.116;2023-06-04T09:56:01;97991.69;;;29.09;31.77
15489;BME280;7846;48.830;9.116;2023-06-04T09:58:29;97989.59;;;27.92;33.18
15489;BME280;7846;48.830;9.116;2023-06-04T10:00:56;97992.47;;;28.48;32.89
15489;BME280;7846;48.830;9.116;2023-06-04T10:03:24;97983.56;;;28.63;32.43
15489;BME280;7846;48.830;9.116;2023-06-04T10:05:53;97992.41;;;27.17;33.23
15489;BME280;7846;48.830;9.116;2023-06-04T10:08:21;97986.50;;;28.41;33.39
15489;BME280;7846;48.830;9.116;2023-06-04T10:10:49;97984.06;;;28.80;31.98
15489;BME280;7846;48.830;9.116;2023-06-04T10:13:19;97985.97;;;28.69;32.22
15489;BME280;7846;48.830;9.116;2023-06-04T10:15:47;97985.19;;;28.74;31.44
15489;BME280;7846;48.830;9.116;2023-06-04T10:18:18;97978.59;;;28.34;31.26
15489;BME280;7846;48.830;9.116;2023-06-04T10:20:46;97982.75;;;29.08;31.73
15489;BME280;7846;48.830;9.116;2023-06-04T10:23:12;97982.19;;;28.60;31.28
15489;BME280;7846;48.830;9.116;2023-06-04T10:25:38;97982.19;;;29.11;31.38
15489;BME280;7846;48.830;9.116;2023-06-04T10:28:04;97972.41;;;29.21;30.20
15489;BME280;7846;48.830;9.116;2023-06-04T10:30:30;97977.84;;;28.69;30.47
15489;BME280;7846;48.830;9.116;2023-06-04T10:32:57;97976.97;;;28.23;31.59
15489;BME280;7846;48.830;9.116;2023-06-04T10:35:33;97964.84;;;28.66;30.88
15489;BME280;7846;48.830;9.116;2023-06-04T10:38:12;97959.59;;;29.52;30.90
15489;BME280;7846;48.830;9.116;2023-06-04T10:40:42;97960.50;;;28.65;30.93
15489;BME280;7846;48.830;9.116;2023-06-04T10:43:09;97960.09;;;26.95;32.25
15489;BME280;7846;48.830;9.116;2023-06-04T10:45:35;97956.97;;;27.61;32.69
15489;BME280;7846;48.830;9.116;2023-06-04T10:48:02;97956.97;;;27.61;31.61
15489;BME280;7846;48.830;9.116;2023-06-04T10:50:28;97958.16;;;27.76;31.89
15489;BME280;7846;48.830;9.116;2023-06-04T10:52:55;97963.50;;;26.48;31.84
15489;BME280;7846;48.830;9.116;2023-06-04T10:55:20;97958.13;;;27.23;32.19
15489;BME280;7846;48.830;9.116;2023-06-04T10:58:00;97956.16;;;28.69;31.21
15489;BME280;7846;48.830;9.116;2023-06-04T11:00:43;97965.13;;;28.65;31.10
15489;BME280;7846;48.830;9.116;2023-06-04T11:03:12;97954.00;;;28.56;30.95
15489;BME280;7846;48.830;9.116;2023-06-04T11:05:44;97947.50;;;28.47;30.59
15489;BME280;7846;48.830;9.116;2023-06-04T11:08:12;97949.94;;;28.38;31.53
15489;BME280;7846;48.830;9.116;2023-06-04T11:10:40;97953.19;;;29.02;30.54
15489;BME280;7846;48.830;9.116;2023-06-04T11:13:07;97950.69;;;29.26;30.34
15489;BME280;7846;48.830;9.116;2023-06-04T11:15:41;97955.75;;;29.68;29.44
15489;BME280;7846;48.830;9.116;2023-06-04T11:18:07;97955.28;;;30.05;29.91
15489;BME280;7846;48.830;9.116;2023-06-04T11:20:33;97958.00;;;30.50;28.89
15489;BME280;7846;48.830;9.116;2023-06-04T11:22:59;97950.34;;;29.63;30.21
15489;BME280;7846;48.830;9.116;2023-06-04T11:25:28;97959.78;;;30.30;29.57
15489;BME280;7846;48.830;9.116;2023-06-04T11:27:56;97950.22;;;30.72;28.11
15489;BME280;7846;48.830;9.116;2023-06-04T11:30:22;97955.25;;;30.16;29.45
15489;BME280;7846;48.830;9.116;2023-06-04T11:32:48;97953.88;;;27.95;30.25
15489;BME280;7846;48.830;9.116;2023-06-04T11:35:13;97955.00;;;28.14;30.47
15489;BME280;7846;48.830;9.116;2023-06-04T11:37:53;97943.41;;;28.34;29.97
15489;BME280;7846;48.830;9.116;2023-06-04T11:40:19;97942.06;;;29.18;29.37
15489;BME280;7846;48.830;9.116;2023-06-04T11:42:46;97942.03;;;28.16;30.05
15489;BME280;7846;48.830;9.116;2023-06-04T11:45:17;97936.34;;;28.23;30.18
15489;BME280;7846;48.830;9.116;2023-06-04T11:47:51;97932.22;;;29.38;29.39
15489;BME280;7846;48.830;9.116;2023-06-04T11:50:19;97946.03;;;30.56;29.11
15489;BME280;7846;48.830;9.116;2023-06-04T11:52:47;97950.19;;;31.36;28.38
15489;BME280;7846;48.830;9.116;2023-06-04T11:55:13;97956.81;;;31.00;28.24
15489;BME280;7846;48.830;9.116;2023-06-04T11:57:40;97964.28;;;31.14;27.24
15489;BME280;7846;48.830;9.116;2023-06-04T12:00:07;97956.66;;;29.38;28.38
15489;BME280;7846;48.830;9.116;2023-06-04T12:02:37;97952.47;;;29.71;28.05
15489;BME280;7846;48.830;9.116;2023-06-04T12:05:16;97949.13;;;28.84;28.42
15489;BME280;7846;48.830;9.116;2023-06-04T12:07:43;97940.75;;;29.81;28.09
15489;BME280;7846;48.830;9.116;2023-06-04T12:10:09;97953.06;;;27.99;29.25
15489;BME280;7846;48.830;9.116;2023-06-04T12:12:37;97938.28;;;28.74;29.06
15489;BME280;7846;48.830;9.116;2023-06-04T12:15:04;97931.47;;;29.07;29.10
15489;BME280;7846;48.830;9.116;2023-06-04T12:17:31;97935.84;;;31.01;27.02
15489;BME280;7846;48.830;9.116;2023-06-04T12:19:56;97928.66;;;29.63;27.10
15489;BME280;7846;48.830;9.116;2023-06-04T12:22:23;97923.53;;;29.46;27.38
15489;BME280;7846;48.830;9.116;2023-06-04T12:24:56;97927.75;;;31.49;26.01
15489;BME280;7846;48.830;9.116;2023-06-04T12:27:23;97921.97;;;33.29;24.72
15489;BME280;7846;48.830;9.116;2023-06-04T12:30:17;97938.69;;;31.15;25.66
15489;BME280;7846;48.830;9.116;2023-06-04T12:32:43;97927.31;;;30.49;26.58
15489;BME280;7846;48.830;9.116;2023-06-04T12:35:09;97923.03;;;32.54;25.15
15489;BME280;7846;48.830;9.116;2023-06-04T12:37:34;97931.00;;;31.70;25.11
15489;BME280;7846;48.830;9.116;2023-06-04T12:40:00;97936.25;;;30.10;27.10
15489;BME280;7846;48.830;9.116;2023-06-04T12:42:26;97928.59;;;30.91;27.05
15489;BME280;7846;48.830;9.116;2023-06-04T12:44:53;97924.53;;;34.17;24.63
15489;BME280;7846;48.830;9.116;2023-06-04T12:47:18;97933.91;;;35.54;23.33
15489;BME280;7846;48.830;9.116;2023-06-04T12:49:45;97946.72;;;35.36;23.20
15489;BME280;7846;48.830;9.116;2023-06-04T12:52:10;97939.09;;;31.99;24.17
15489;BME280;7846;48.830;9.116;2023-06-04T12:54:36;97932.19;;;31.40;26.01
15489;BME280;7846;48.830;9.116;2023-06-04T12:57:01;97929.75;;;32.43;24.64
15489;BME280;7846;48.830;9.116;2023-06-04T12:59:27;97922.16;;;32.02;24.53
15489;BME280;7846;48.830;9.116;2023-06-04T13:01:55;97917.06;;;31.28;25.06
15489;BME280;7846;48.830;9.116;2023-06-04T13:04:21;97918.22;;;30.64;26.10
15489;BME280;7846;48.830;9.116;2023-06-04T13:06:49;97912.84;;;30.14;27.06
15489;BME280;7846;48.830;9.116;2023-06-04T13:09:17;97903.88;;;29.75;27.05
15489;BME280;7846;48.830;9.116;2023-06-04T13:11:44;97915.50;;;29.80;26.80
15489;BME280;7846;48.830;9.116;2023-06-04T13:14:11;97908.47;;;30.63;26.49
15489;BME280;7846;48.830;9.116;2023-06-04T13:16:39;97909.06;;;32.23;24.79